Weather History for Bentonville, AR

Change the Weather History Date:

Thursday, November 8, 2012

  Actual Average Record
Temperature  
Mean Temperature 53 °F -  
Max Temperature 69 °F 58 °F 80 °F (1963)
Min Temperature 37 °F 37 °F 11 °F (1991)
Degree Days  
Heating Degree Days 12    
Growing Degree Days 3 (Base 50)    
Moisture  
Dew Point 35 °F    
Average Humidity 53    
Maximum Humidity 75    
Minimum Humidity 28    
Precipitation  
Precipitation 0.00 in - - ()
Sea Level Pressure  
Sea Level Pressure 30.05 in    
Wind  
Wind Speed 7 mph (SSE)    
Max Wind Speed 17 mph    
Max Gust Speed 23 mph    
Visibility 10 miles    
Events      
Averages and records for this station are not official NWS values.
T = Trace of Precipitation, MM = Missing Value Source: NWS Daily Summary

Daily Weather History Graph

Daily Weather History Graph

Search for Another Location

Airport:

Trip Planner

Search our weather history database for the weather conditions in past years. The results will help you decide how hot, cold, wet, or windy it might be!

Date:

Astronomy

Nov. 08, 2012 Rise Set
Actual Time 6:47 AM CST 5:13 PM CST
Civil Twilight 6:20 AM CST 5:40 PM CST
Nautical Twilight 5:49 AM CST 6:11 PM CST
Astronomical Twilight 5:19 AM CST 6:41 PM CST
Moon 12:53 AM CST (11/8) 1:46 PM CST (11/8)
Length of Visible Light 11h 20m
Length of Day
10h 25m
Waning Crescent, 32% of the Moon is Illuminated
Nov 8
Waning Crescent
Nov 13
New
Nov 20
First Quarter
Nov 28
Full
Dec 6
Last Quarter

Hourly Weather History & Observations

Time (CST) Temp. Windchill Dew Point Humidity Pressure Visibility Wind Dir Wind Speed Gust Speed Precip Events Conditions
12:16 AM 39.2 °F - 30.2 °F 70% 30.11 in 10.0 mi Calm Calm - N/A   Clear
12:35 AM 39.2 °F - 30.2 °F 70% 30.12 in 10.0 mi Calm Calm - N/A   Clear
12:55 AM 37.4 °F - 28.4 °F 70% 30.12 in 10.0 mi Calm Calm - N/A   Clear
1:15 AM 37.4 °F 34.9 °F 30.2 °F 75% 30.12 in 10.0 mi SE 3.5 mph - N/A   Clear
1:35 AM 37.4 °F 33.8 °F 30.2 °F 75% 30.12 in 10.0 mi SE 4.6 mph - N/A   Clear
1:55 AM 39.2 °F 35.9 °F 30.2 °F 70% 30.13 in 10.0 mi SSE 4.6 mph - N/A   Clear
2:15 AM 37.4 °F 33.8 °F 30.2 °F 75% 30.13 in 10.0 mi SE 4.6 mph - N/A   Clear
2:35 AM 37.4 °F 33.8 °F 28.4 °F 70% 30.13 in 10.0 mi SE 4.6 mph - N/A   Clear
2:55 AM 37.4 °F 33.8 °F 30.2 °F 75% 30.12 in 10.0 mi SE 4.6 mph - N/A   Clear
3:15 AM 37.4 °F 33.8 °F 28.4 °F 70% 30.12 in 10.0 mi ESE 4.6 mph - N/A   Clear
3:36 AM 39.2 °F 34.2 °F 30.2 °F 70% 30.11 in 10.0 mi ESE 6.9 mph - N/A   Clear
3:55 AM 37.4 °F 33.8 °F 30.2 °F 75% 30.11 in 10.0 mi ESE 4.6 mph - N/A   Clear
4:15 AM 39.2 °F 34.2 °F 30.2 °F 70% 30.11 in 10.0 mi SE 6.9 mph - N/A   Clear
4:36 AM 39.2 °F 33.6 °F 30.2 °F 70% 30.10 in 10.0 mi SE 8.1 mph - N/A   Clear
4:55 AM 39.2 °F 33.0 °F 32.0 °F 75% 30.10 in 10.0 mi SE 9.2 mph - N/A   Clear
5:55 AM 39.2 °F 34.2 °F 30.2 °F 70% 30.11 in 10.0 mi SE 6.9 mph - N/A   Clear
6:56 AM 39.2 °F 34.2 °F 30.2 °F 70% 30.11 in 10.0 mi SE 6.9 mph - N/A   Clear
7:15 AM 39.2 °F 35.0 °F 30.2 °F 70% 30.11 in 10.0 mi SE 5.8 mph - N/A   Clear
7:35 AM 42.8 °F 38.6 °F 33.8 °F 70% 30.11 in 10.0 mi SE 6.9 mph - N/A   Clear
8:15 AM 46.4 °F 42.4 °F 33.8 °F 62% 30.12 in 10.0 mi SE 8.1 mph - N/A   Clear
8:35 AM 48.2 °F - 35.6 °F 62% 30.12 in 10.0 mi SE 6.9 mph - N/A   Clear
9:15 AM 53.6 °F - 35.6 °F 51% 30.12 in 10.0 mi SSE 10.4 mph - N/A   Clear
9:55 AM 57.2 °F - 35.6 °F 44% 30.12 in 10.0 mi SSE 12.7 mph - N/A   Clear
10:15 AM 59.0 °F - 35.6 °F 42% 30.12 in 10.0 mi SSE 12.7 mph - N/A   Clear
10:35 AM 60.8 °F - 35.6 °F 39% 30.11 in 10.0 mi SSE 10.4 mph - N/A   Clear
10:55 AM 62.6 °F - 35.6 °F 37% 30.11 in 10.0 mi SSE 8.1 mph - N/A   Clear
11:35 AM 66.2 °F - 33.8 °F 30% 30.08 in 10.0 mi South 12.7 mph 17.3 mph N/A   Clear
11:55 AM 66.2 °F - 35.6 °F 32% 30.07 in 10.0 mi South 9.2 mph 18.4 mph N/A   Clear
12:15 PM 66.2 °F - 35.6 °F 32% 30.06 in 10.0 mi South 9.2 mph 19.6 mph N/A   Clear
12:35 PM 68.0 °F - 35.6 °F 30% 30.05 in 10.0 mi South 12.7 mph 21.9 mph N/A   Clear
12:55 PM 69.8 °F - 35.6 °F 28% 30.04 in 10.0 mi South 17.3 mph 23.0 mph N/A   Clear
1:35 PM 68.0 °F - 37.4 °F 33% 30.02 in 10.0 mi South 13.8 mph 19.6 mph N/A   Clear
1:55 PM 69.8 °F - 37.4 °F 31% 30.02 in 10.0 mi South 15.0 mph 21.9 mph N/A   Clear
2:35 PM 68.0 °F - 39.2 °F 35% 30.01 in 10.0 mi South 12.7 mph - N/A   Clear
2:55 PM 68.0 °F - 39.2 °F 35% 30.00 in 10.0 mi South 15.0 mph 20.7 mph N/A   Clear
3:15 PM 68.0 °F - 39.2 °F 35% 30.00 in 10.0 mi South 11.5 mph 20.7 mph N/A   Clear
3:36 PM 68.0 °F - 41.0 °F 37% 29.99 in 10.0 mi South 11.5 mph 18.4 mph N/A   Clear
3:55 PM 66.2 °F - 41.0 °F 40% 29.99 in 10.0 mi SSE 13.8 mph - N/A   Clear
4:35 PM 64.4 °F - 39.2 °F 40% 29.98 in 10.0 mi SSE 11.5 mph - N/A   Clear
4:55 PM 62.6 °F - 39.2 °F 42% 29.98 in 10.0 mi SSE 10.4 mph - N/A   Clear
5:35 PM 60.8 °F - 37.4 °F 42% 29.97 in 10.0 mi SSE 11.5 mph 16.1 mph N/A   Clear
5:56 PM 59.0 °F - 37.4 °F 45% 29.97 in 10.0 mi SE 10.4 mph - N/A   Clear
6:15 PM 57.2 °F - 37.4 °F 48% 29.98 in 10.0 mi SE 10.4 mph - N/A   Clear
6:35 PM 57.2 °F - 37.4 °F 48% 29.97 in 10.0 mi SSE 10.4 mph 16.1 mph N/A   Clear
6:56 PM 57.2 °F - 37.4 °F 48% 29.98 in 10.0 mi SSE 12.7 mph 17.3 mph N/A   Clear
7:15 PM 57.2 °F - 37.4 °F 48% 29.98 in 10.0 mi SSE 13.8 mph 19.6 mph N/A   Clear
7:35 PM 57.2 °F - 37.4 °F 48% 29.98 in 10.0 mi SSE 11.5 mph 18.4 mph N/A   Clear
7:55 PM 55.4 °F - 37.4 °F 51% 29.98 in 10.0 mi SSE 10.4 mph - N/A   Clear
8:15 PM 55.4 °F - 37.4 °F 51% 29.98 in 10.0 mi SSE 10.4 mph - N/A   Clear
8:35 PM 53.6 °F - 37.4 °F 54% 29.99 in 10.0 mi SSE 9.2 mph - N/A   Clear
9:15 PM 51.8 °F - 37.4 °F 58% 29.99 in 10.0 mi SSE 5.8 mph - N/A   Clear
9:35 PM 53.6 °F - 37.4 °F 54% 29.99 in 10.0 mi SSE 6.9 mph - N/A   Clear
9:55 PM 55.4 °F - 39.2 °F 54% 29.99 in 10.0 mi South 8.1 mph - N/A   Clear
10:35 PM 55.4 °F - 39.2 °F 54% 29.99 in 10.0 mi SSE 10.4 mph - N/A   Clear
10:55 PM 55.4 °F - 39.2 °F 54% 29.98 in 10.0 mi South 10.4 mph - N/A   Clear
11:15 PM 55.4 °F - 39.2 °F 54% 29.98 in 10.0 mi SSE 11.5 mph 16.1 mph N/A   Clear
11:35 PM 55.4 °F - 41.0 °F 58% 29.99 in 10.0 mi South 10.4 mph - N/A   Clear